To NAV CANADA Home Page Login to a new session Search on AWWS site Feedback and Comments Disclaimer Vers la page française équivalente Tips FAQ What's new on the site To the Forecasts and Observations / NOTAM section To "File a Flight Plan" website Publications and other links Update of the User's profile FIC Telephone Numbers My Weather Data Folder Route Weather Data Regional Weather Data Local Weather Data To the Forecasts and Observations / NOTAM section
Request Generated 12/10/2016 at 16:33:30 UTC . Weather information available at that time is displayed.

METAR/TAF

SASKATOON/JOHN G. DIEFENBAKER INTL/SK    

METAR CYXE 101600Z 10005KT 15SM BKN055 BKN200 M22/M25 A3019 RMK
SC5CI1 SLP284=
METAR CYXE 101500Z 09005KT 15SM SCT055 M24/M27 A3021 RMK SC3 SLP292=
METAR CYXE 101400Z 11004KT 15SM IC SCT200 M24/M27 A3025 RMK CI3
SLP305=

TAF CYXE 101138Z 1012/1112 11005KT P6SM IC SKC TEMPO 1012/1018 3SM IC
BR
FM101800 11008KT P6SM SKC
FM110900 17005KT P6SM IC SKC PROB30 1109/1112 2SM IC BR
RMK NXT FCST BY 101800Z=
Your time UTC time
Weather data provided by Environment Canada and NAV CANADA